createdAt,value
2019-04-10T00:00:37.351Z,98352.72
2019-04-10T00:03:06.303Z,98345.66
2019-04-10T00:05:34.904Z,98350.26
2019-04-10T00:08:04.523Z,98347.27
2019-04-10T00:10:34.031Z,98345.81
2019-04-10T00:13:02.960Z,98348.05
2019-04-10T00:15:32.682Z,98351.97
2019-04-10T00:18:02.485Z,98355.42
2019-04-10T00:20:32.192Z,98361.86
2019-04-10T00:23:01.046Z,98361.40
2019-04-10T00:25:29.727Z,98361.72
2019-04-10T00:27:59.051Z,98359.42
2019-04-10T00:30:27.740Z,98355.88
2019-04-10T00:32:56.472Z,98359.51
2019-04-10T00:35:25.566Z,98366.34
2019-04-10T00:37:55.463Z,98360.33
2019-04-10T00:40:24.135Z,98360.86
2019-04-10T00:42:53.513Z,98361.70
2019-04-10T00:45:22.394Z,98357.47
2019-04-10T00:47:51.156Z,98358.87
2019-04-10T00:50:20.969Z,98358.09
2019-04-10T00:52:49.529Z,98354.69
2019-04-10T00:55:18.165Z,98353.77
2019-04-10T00:57:47.481Z,98356.17
2019-04-10T01:00:16.991Z,98351.97
2019-04-10T01:02:45.638Z,98356.58
2019-04-10T01:05:15.191Z,98355.88
2019-04-10T01:07:44.699Z,98351.21
2019-04-10T01:10:14.447Z,98343.11
2019-04-10T01:12:44.003Z,98343.93
2019-04-10T01:15:12.753Z,98345.93
2019-04-10T01:17:42.333Z,98346.69
2019-04-10T01:20:11.356Z,98341.98
2019-04-10T01:22:40.023Z,98338.77
2019-04-10T01:25:08.642Z,98339.75
2019-04-10T01:27:38.264Z,98345.73
2019-04-10T01:30:08.636Z,98343.52
2019-04-10T01:32:37.495Z,98347.12
2019-04-10T01:35:07.821Z,98344.97
2019-04-10T01:37:48.606Z,98340.07
2019-04-10T01:40:08.422Z,98342.68
2019-04-10T01:42:36.967Z,98340.64
2019-04-10T01:45:07.233Z,98339.75
2019-04-10T01:47:35.753Z,98336.12
2019-04-10T01:50:06.397Z,98336.81
2019-04-10T01:52:35.389Z,98340.00
2019-04-10T01:55:18.139Z,98334.58
2019-04-10T01:57:36.631Z,98335.48
2019-04-10T02:00:08.835Z,98340.32
2019-04-10T02:02:39.195Z,98331.84
2019-04-10T02:05:08.171Z,98341.92
2019-04-10T02:07:36.815Z,98336.46
2019-04-10T02:10:07.895Z,98334.47
2019-04-10T02:12:38.857Z,98327.56
2019-04-10T02:15:11.231Z,98326.34
2019-04-10T02:17:38.989Z,98330.11
2019-04-10T02:20:09.047Z,98329.09
2019-04-10T02:22:38.445Z,98331.14
2019-04-10T02:25:07.642Z,98332.55
2019-04-10T02:27:37.222Z,98330.45
2019-04-10T02:30:10.371Z,98332.36
2019-04-10T02:32:41.139Z,98332.55
2019-04-10T02:35:13.211Z,98329.61
2019-04-10T02:37:43.391Z,98331.62
2019-04-10T02:40:16.940Z,98334.31
2019-04-10T02:42:47.377Z,98337.16
2019-04-10T02:45:17.131Z,98334.79
2019-04-10T02:47:47.477Z,98334.13
2019-04-10T02:50:18.792Z,98335.02
2019-04-10T02:52:50.112Z,98342.10
2019-04-10T02:55:18.661Z,98343.74
2019-04-10T02:57:49.842Z,98339.03
2019-04-10T03:00:20.331Z,98345.61
2019-04-10T03:02:52.035Z,98343.41
2019-04-10T03:05:22.989Z,98345.92
2019-04-10T03:07:52.632Z,98341.78
2019-04-10T03:10:34.051Z,98340.71
2019-04-10T03:12:56.397Z,98348.68
2019-04-10T03:15:25.378Z,98340.37
2019-04-10T03:17:55.222Z,98342.14
2019-04-10T03:20:24.652Z,98348.86
2019-04-10T03:22:53.486Z,98353.61
2019-04-10T03:25:24.583Z,98345.41
2019-04-10T03:27:54.392Z,98354.30
2019-04-10T03:30:23.710Z,98358.55
2019-04-10T03:33:00.911Z,98353.84
2019-04-10T03:35:32.806Z,98357.89
2019-04-10T03:38:01.617Z,98356.67
2019-04-10T03:40:31.270Z,98356.72
2019-04-10T03:42:59.972Z,98358.16
2019-04-10T03:45:28.637Z,98359.00
2019-04-10T03:47:58.015Z,98353.79
2019-04-10T03:50:29.963Z,98358.30
2019-04-10T03:53:05.513Z,98358.62
2019-04-10T03:55:34.850Z,98370.31
2019-04-10T03:58:03.505Z,98366.18
2019-04-10T04:00:34.166Z,98366.18
2019-04-10T04:03:06.500Z,98371.89
2019-04-10T04:05:37.745Z,98358.62
2019-04-10T04:08:07.483Z,98364.52
2019-04-10T04:10:37.097Z,98369.66
2019-04-10T04:13:07.422Z,98376.89
2019-04-10T04:15:36.204Z,98380.77
2019-04-10T04:18:04.831Z,98380.77
2019-04-10T04:20:34.937Z,98389.91
2019-04-10T04:23:03.674Z,98392.43
2019-04-10T04:25:34.912Z,98393.30
2019-04-10T04:28:04.556Z,98392.57
2019-04-10T04:30:34.086Z,98391.13
2019-04-10T04:33:02.854Z,98394.98
2019-04-10T04:35:31.829Z,98398.85
2019-04-10T04:38:00.519Z,98391.31
2019-04-10T04:40:30.026Z,98387.95
2019-04-10T04:42:58.737Z,98389.25
2019-04-10T04:45:27.852Z,98391.86
2019-04-10T04:47:57.584Z,98391.91
2019-04-10T04:50:27.037Z,98399.83
2019-04-10T04:52:56.007Z,98401.95
2019-04-10T04:55:24.628Z,98399.84
2019-04-10T04:57:53.560Z,98401.84
2019-04-10T05:00:23.617Z,98399.98
2019-04-10T05:02:53.444Z,98402.88
2019-04-10T05:05:23.006Z,98403.44
2019-04-10T05:07:59.264Z,98404.28
2019-04-10T05:10:22.916Z,98410.80
2019-04-10T05:12:55.789Z,98412.11
2019-04-10T05:15:26.998Z,98408.71
2019-04-10T05:17:57.634Z,98411.02
2019-04-10T05:20:38.778Z,98413.17
2019-04-10T05:22:57.624Z,98412.33
2019-04-10T05:25:27.316Z,98409.27
2019-04-10T05:27:56.188Z,98414.25
2019-04-10T05:30:27.208Z,98408.67
2019-04-10T05:32:56.060Z,98418.27
2019-04-10T05:35:25.722Z,98419.52
2019-04-10T05:37:58.265Z,98417.80
2019-04-10T05:40:28.008Z,98420.19
2019-04-10T05:42:59.595Z,98426.38
2019-04-10T05:45:31.834Z,98420.69
2019-04-10T05:48:01.187Z,98417.39
2019-04-10T05:50:30.033Z,98417.47
2019-04-10T05:53:02.319Z,98414.03
2019-04-10T05:55:34.555Z,98410.67
2019-04-10T05:58:03.378Z,98419.62
2019-04-10T06:00:34.533Z,98419.20
2019-04-10T06:03:06.130Z,98420.31
2019-04-10T06:05:35.100Z,98412.34
2019-04-10T06:08:03.904Z,98415.41
2019-04-10T06:10:35.446Z,98419.48
2019-04-10T06:13:04.096Z,98423.57
2019-04-10T06:15:32.948Z,98424.38
2019-04-10T06:18:03.258Z,98431.81
2019-04-10T06:20:33.434Z,98435.30
2019-04-10T06:23:03.240Z,98436.18
2019-04-10T06:25:35.368Z,98442.33
2019-04-10T06:28:05.326Z,98443.86
2019-04-10T06:30:34.132Z,98447.61
2019-04-10T06:33:04.043Z,98453.02
2019-04-10T06:35:37.767Z,98460.41
2019-04-10T06:38:06.866Z,98453.17
2019-04-10T06:40:39.893Z,98453.37
2019-04-10T06:43:10.143Z,98462.76
2019-04-10T06:45:43.996Z,98460.87
2019-04-10T06:48:15.542Z,98459.70
2019-04-10T06:50:44.805Z,98454.70
2019-04-10T06:53:16.212Z,98458.09
2019-04-10T06:55:44.995Z,98454.33
2019-04-10T06:58:15.768Z,98449.84
2019-04-10T07:00:48.606Z,98447.86
2019-04-10T07:03:14.953Z,98453.78
2019-04-10T07:05:59.734Z,98453.26
2019-04-10T07:08:17.266Z,98452.33
2019-04-10T07:10:53.644Z,98460.10
2019-04-10T07:13:17.981Z,98455.71
2019-04-10T07:15:49.651Z,98463.19
2019-04-10T07:18:20.669Z,98471.41
2019-04-10T07:20:51.098Z,98477.48
2019-04-10T07:23:25.837Z,98475.55
2019-04-10T07:25:52.039Z,98475.86
2019-04-10T07:28:21.550Z,98474.27
2019-04-10T07:30:52.066Z,98481.33
2019-04-10T07:33:21.392Z,98478.08
2019-04-10T07:35:54.841Z,98485.49
2019-04-10T07:38:22.751Z,98492.03
2019-04-10T07:40:51.912Z,98486.80
2019-04-10T07:43:24.516Z,98488.34
2019-04-10T07:45:51.249Z,98488.03
2019-04-10T07:48:20.529Z,98496.57
2019-04-10T07:50:49.184Z,98492.87
2019-04-10T07:53:18.883Z,98498.16
2019-04-10T07:55:58.443Z,98494.18
2019-04-10T07:58:19.408Z,98491.56
2019-04-10T08:00:49.735Z,98498.02
2019-04-10T08:03:18.886Z,98492.16
2019-04-10T08:05:48.173Z,98493.64
2019-04-10T08:08:17.199Z,98495.11
2019-04-10T08:10:48.828Z,98497.66
2019-04-10T08:13:19.101Z,98497.82
2019-04-10T08:15:47.929Z,98496.98
2019-04-10T08:18:18.961Z,98498.66
2019-04-10T08:20:49.425Z,98499.76
2019-04-10T08:23:19.798Z,98503.12
2019-04-10T08:25:50.037Z,98504.28
2019-04-10T08:28:20.099Z,98505.52
2019-04-10T08:30:48.829Z,98506.89
2019-04-10T08:33:17.577Z,98503.12
2019-04-10T08:35:47.394Z,98501.13
2019-04-10T08:38:17.270Z,98502.58
2019-04-10T08:40:46.271Z,98500.22
2019-04-10T08:43:15.837Z,98498.73
2019-04-10T08:45:48.459Z,98501.04
2019-04-10T08:48:17.687Z,98498.89
2019-04-10T08:50:50.331Z,98500.52
2019-04-10T08:53:20.114Z,98500.57
2019-04-10T08:55:48.869Z,98503.88
2019-04-10T08:58:18.742Z,98505.19
2019-04-10T09:00:47.467Z,98499.36
2019-04-10T09:03:17.001Z,98505.39
2019-04-10T09:05:46.888Z,98510.00
2019-04-10T09:08:15.398Z,98511.46
2019-04-10T09:10:44.800Z,98516.02
2019-04-10T09:13:14.535Z,98514.13
2019-04-10T09:15:43.276Z,98507.72
2019-04-10T09:18:12.844Z,98513.73
2019-04-10T09:20:42.478Z,98507.34
2019-04-10T09:23:29.739Z,98510.44
2019-04-10T09:25:41.731Z,98509.58
2019-04-10T09:28:10.612Z,98508.50
2019-04-10T09:30:39.147Z,98508.73
2019-04-10T09:33:18.698Z,98503.25
2019-04-10T09:35:38.485Z,98504.82
2019-04-10T09:38:07.301Z,98515.11
2019-04-10T09:40:36.300Z,98508.02
2019-04-10T09:43:05.187Z,98505.62
2019-04-10T09:45:34.968Z,98505.56
2019-04-10T09:48:06.362Z,98509.16
2019-04-10T09:50:35.498Z,98508.42
2019-04-10T09:53:04.391Z,98507.11
2019-04-10T09:55:33.094Z,98511.23
2019-04-10T09:58:10.404Z,98510.05
2019-04-10T10:00:40.226Z,98511.17
2019-04-10T10:03:09.792Z,98510.62
2019-04-10T10:05:39.117Z,98514.17
2019-04-10T10:08:09.099Z,98510.89
2019-04-10T10:10:39.853Z,98511.56
2019-04-10T10:13:13.065Z,98514.34
2019-04-10T10:15:43.104Z,98516.73
2019-04-10T10:18:12.949Z,98510.23
2019-04-10T10:20:41.811Z,98506.48
2019-04-10T10:23:13.741Z,98510.13
2019-04-10T10:25:43.560Z,98508.91
2019-04-10T10:28:13.209Z,98509.67
2019-04-10T10:30:41.874Z,98510.78
2019-04-10T10:33:10.538Z,98505.98
2019-04-10T10:35:39.358Z,98513.13
2019-04-10T10:38:10.967Z,98501.81
2019-04-10T10:40:39.687Z,98509.62
2019-04-10T11:52:53.450Z,98503.78
2019-04-10T11:55:25.366Z,98497.78
2019-04-10T12:16:47.343Z,98496.28
2019-04-10T12:19:16.012Z,98499.17
2019-04-10T12:21:44.602Z,98499.44
2019-04-10T12:24:14.057Z,98498.64
2019-04-10T12:26:42.802Z,98494.75
2019-04-10T12:29:11.436Z,98493.83
2019-04-10T12:31:40.203Z,98493.26
2019-04-10T12:34:08.893Z,98485.25
2019-04-10T12:36:38.478Z,98482.92
2019-04-10T12:39:12.081Z,98485.36
2019-04-10T12:41:41.637Z,98473.25
2019-04-10T12:44:11.593Z,98471.81
2019-04-10T12:46:41.428Z,98477.20
2019-04-10T12:49:10.553Z,98474.67
2019-04-10T12:51:40.179Z,98474.97
2019-04-10T12:54:09.941Z,98469.58
2019-04-10T12:56:38.584Z,98469.14
2019-04-10T12:59:07.258Z,98466.85
2019-04-10T13:01:36.587Z,98465.89
2019-04-10T13:04:05.479Z,98448.77
2019-04-10T13:06:37.962Z,98437.80
2019-04-10T13:09:12.015Z,98435.09
2019-04-10T13:11:37.839Z,98431.58
2019-04-10T13:14:09.145Z,98437.30
2019-04-10T13:16:38.431Z,98438.31
2019-04-10T13:19:07.074Z,98434.98
2019-04-10T13:21:36.792Z,98437.64
2019-04-10T13:24:05.687Z,98441.73
2019-04-10T13:26:34.315Z,98438.91
2019-04-10T13:29:03.639Z,98442.35
2019-04-10T13:31:33.163Z,98441.02
2019-04-10T13:34:02.786Z,98434.62
2019-04-10T13:36:31.468Z,98434.56
2019-04-10T13:39:00.293Z,98432.52
2019-04-10T13:41:29.031Z,98431.41
2019-04-10T13:43:58.164Z,98434.84
2019-04-10T13:46:26.911Z,98444.38
2019-04-10T13:48:55.586Z,98440.53
2019-04-10T13:51:24.186Z,98438.33
2019-04-10T13:53:52.817Z,98436.59
2019-04-10T13:56:21.461Z,98439.09
2019-04-10T13:58:50.810Z,98441.92
2019-04-10T14:01:21.094Z,98439.06
2019-04-10T14:03:50.370Z,98433.41
2019-04-10T14:06:19.289Z,98439.77
2019-04-10T14:09:03.105Z,98437.39
2019-04-10T14:11:19.148Z,98435.77
2019-04-10T14:13:48.374Z,98438.89
2019-04-10T14:16:17.017Z,98438.67
2019-04-10T14:18:45.779Z,98439.37
2019-04-10T14:21:16.056Z,98441.12
2019-04-10T14:23:45.261Z,98437.25
2019-04-10T14:26:22.267Z,98439.39
2019-04-10T14:28:51.502Z,98446.07
2019-04-10T14:31:28.691Z,98440.58
2019-04-10T14:33:58.401Z,98439.54
2019-04-10T14:36:27.718Z,98439.54
2019-04-10T14:39:09.450Z,98436.84
2019-04-10T14:41:29.636Z,98436.42
2019-04-10T14:43:58.326Z,98431.37
2019-04-10T14:46:26.927Z,98439.61
2019-04-10T14:48:56.570Z,98436.75
2019-04-10T14:51:25.325Z,98422.05
2019-04-10T14:53:53.888Z,98432.92
2019-04-10T14:56:22.563Z,98422.64
2019-04-10T14:58:51.091Z,98432.73
2019-04-10T15:01:19.903Z,98438.74
2019-04-10T15:03:48.778Z,98434.16
2019-04-10T15:06:20.046Z,98437.49
2019-04-10T15:08:48.814Z,98443.67
2019-04-10T15:11:18.316Z,98450.98
2019-04-10T15:13:47.099Z,98454.90
2019-04-10T15:16:16.783Z,98444.31
2019-04-10T15:18:45.813Z,98455.41
2019-04-10T15:21:14.537Z,98445.50
2019-04-10T15:23:43.108Z,98448.63
2019-04-10T15:26:11.672Z,98447.69
2019-04-10T15:28:46.082Z,98452.41
2019-04-10T15:31:15.167Z,98452.94
2019-04-10T15:33:44.495Z,98460.34
2019-04-10T15:36:15.907Z,98459.91
2019-04-10T15:38:48.557Z,98460.47
2019-04-10T15:41:17.285Z,98461.98
2019-04-10T15:43:49.718Z,98457.88
2019-04-10T15:46:19.169Z,98471.64
2019-04-10T15:48:50.796Z,98470.55
2019-04-10T15:51:20.421Z,98470.92
2019-04-10T15:53:49.433Z,98465.69
2019-04-10T15:56:19.308Z,98461.63
2019-04-10T15:58:48.271Z,98467.22
2019-04-10T16:01:18.522Z,98463.36
2019-04-10T16:03:47.251Z,98461.82
2019-04-10T16:06:15.872Z,98465.29
2019-04-10T16:08:44.844Z,98465.21
2019-04-10T16:11:15.144Z,98461.32
2019-04-10T16:13:46.361Z,98465.34
2019-04-10T16:16:34.672Z,98464.64
2019-04-10T16:19:10.645Z,98461.00
2019-04-10T16:21:42.105Z,98468.30
2019-04-10T16:24:14.886Z,98466.48
2019-04-10T16:26:43.576Z,98465.92
2019-04-10T16:29:12.208Z,98463.77
2019-04-10T16:31:40.787Z,98465.73
2019-04-10T16:34:09.456Z,98466.50
2019-04-10T16:36:38.022Z,98464.45
2019-04-10T16:39:11.305Z,98470.05
2019-04-10T16:41:39.956Z,98470.14
2019-04-10T16:44:08.841Z,98473.44
2019-04-10T16:46:38.338Z,98471.91
2019-04-10T16:49:07.119Z,98475.77
2019-04-10T16:51:36.563Z,98475.11
2019-04-10T16:54:06.280Z,98477.45
2019-04-10T16:56:35.923Z,98474.38
2019-04-10T16:59:04.685Z,98475.59
2019-04-10T17:01:33.338Z,98481.31
2019-04-10T17:04:02.783Z,98488.43
2019-04-10T17:06:32.492Z,98480.73
2019-04-10T17:09:04.777Z,98490.03
2019-04-10T17:11:33.508Z,98485.33
2019-04-10T17:14:02.733Z,98496.50
2019-04-10T17:16:31.523Z,98497.20
2019-04-10T17:19:00.047Z,98500.91
2019-04-10T17:21:30.741Z,98502.58
2019-04-10T17:23:59.000Z,98507.16
2019-04-10T17:26:27.678Z,98508.25
2019-04-10T17:28:56.652Z,98505.63
2019-04-10T17:31:26.538Z,98515.04
2019-04-10T17:33:56.527Z,98512.02
2019-04-10T17:36:25.381Z,98505.39
2019-04-10T17:38:56.711Z,98517.92
2019-04-10T17:41:26.048Z,98520.34
2019-04-10T17:43:54.685Z,98514.98
2019-04-10T17:46:23.198Z,98523.37
2019-04-10T17:48:51.981Z,98530.50
2019-04-10T17:51:21.968Z,98531.56
2019-04-10T17:53:50.641Z,98529.75
2019-04-10T17:56:22.316Z,98528.56
2019-04-10T17:58:51.991Z,98530.67
2019-04-10T18:01:23.010Z,98535.25
2019-04-10T18:03:56.603Z,98532.52
2019-04-10T18:06:25.583Z,98540.97
2019-04-10T18:08:54.332Z,98538.26
2019-04-10T18:11:22.885Z,98542.77
2019-04-10T18:13:51.519Z,98542.86
2019-04-10T18:16:20.163Z,98554.91
2019-04-10T18:18:48.728Z,98554.48
2019-04-10T18:21:17.432Z,98560.87
2019-04-10T18:23:47.284Z,98564.27
2019-04-10T18:26:20.571Z,98562.95
2019-04-10T18:28:47.828Z,98561.47
2019-04-10T18:31:16.674Z,98571.39
2019-04-10T18:33:45.305Z,98573.45
2019-04-10T18:36:13.991Z,98582.25
2019-04-10T18:38:43.790Z,98580.10
2019-04-10T18:41:13.705Z,98587.08
2019-04-10T18:43:42.585Z,98585.94
2019-04-10T18:46:14.746Z,98587.78
2019-04-10T18:48:44.205Z,98593.52
2019-04-10T18:51:12.566Z,98597.34
2019-04-10T18:53:42.531Z,98605.58
2019-04-10T18:56:11.622Z,98596.94
2019-04-10T18:58:41.873Z,98602.32
2019-04-10T19:01:14.279Z,98607.63
2019-04-10T19:06:27.490Z,98623.84
2019-04-10T19:09:07.705Z,98620.16
2019-04-10T19:11:31.681Z,98615.14
2019-04-10T19:13:59.651Z,98615.20
2019-04-10T19:16:29.820Z,98613.23
2019-04-10T19:18:59.747Z,98608.77
2019-04-10T19:21:29.355Z,98608.61
2019-04-10T19:23:58.082Z,98607.31
2019-04-10T19:26:27.386Z,98608.23
2019-04-10T19:28:57.114Z,98610.06
2019-04-10T19:31:27.748Z,98605.54
2019-04-10T19:33:56.979Z,98605.52
2019-04-10T19:36:25.901Z,98608.67
2019-04-10T19:38:54.531Z,98607.58
2019-04-10T19:41:29.713Z,98612.77
2019-04-10T19:43:54.681Z,98612.22
2019-04-10T19:46:23.820Z,98619.30
2019-04-10T19:48:53.540Z,98620.56
2019-04-10T19:51:22.240Z,98617.08
2019-04-10T19:53:51.224Z,98610.70
2019-04-10T19:56:20.244Z,98611.36
2019-04-10T19:58:48.742Z,98609.48
2019-04-10T20:01:17.377Z,98607.66
2019-04-10T20:03:45.991Z,98602.86
2019-04-10T20:06:14.595Z,98604.18
2019-04-10T20:08:43.978Z,98606.25
2019-04-10T20:11:15.397Z,98610.38
2019-04-10T20:13:44.948Z,98605.87
2019-04-10T20:16:13.765Z,98605.66
2019-04-10T20:18:43.190Z,98607.05
2019-04-10T20:21:12.107Z,98604.69
2019-04-10T20:23:40.680Z,98607.50
2019-04-10T20:26:18.863Z,98602.40
2019-04-10T20:28:47.515Z,98601.09
2019-04-10T20:31:21.331Z,98600.64
2019-04-10T20:33:49.956Z,98597.96
2019-04-10T20:36:18.692Z,98595.22
2019-04-10T20:38:48.346Z,98595.05
2019-04-10T20:41:19.638Z,98596.07
2019-04-10T20:43:48.266Z,98593.88
2019-04-10T20:46:18.038Z,98590.06
2019-04-10T20:48:46.763Z,98587.91
2019-04-10T20:51:16.522Z,98596.25
2019-04-10T20:53:46.262Z,98593.27
2019-04-10T20:56:16.884Z,98591.28
2019-04-10T20:58:45.315Z,98594.73
2019-04-10T21:01:14.527Z,98597.81
2019-04-10T21:03:43.175Z,98598.31
2019-04-10T21:06:15.311Z,98599.83
2019-04-10T21:08:44.651Z,98609.62
2019-04-10T21:11:13.865Z,98614.31
2019-04-10T21:13:42.738Z,98609.97
2019-04-10T21:16:11.455Z,98610.77
2019-04-10T21:18:40.380Z,98611.73
2019-04-10T21:21:10.202Z,98610.42
2019-04-10T21:23:39.938Z,98613.77
2019-04-10T21:26:08.734Z,98620.83
2019-04-10T21:28:37.271Z,98617.95
2019-04-10T21:31:23.687Z,98620.94
2019-04-10T21:34:03.403Z,98626.84
2019-04-10T21:36:32.832Z,98629.14
2019-04-10T21:39:01.438Z,98627.49
2019-04-10T21:41:30.618Z,98624.20
2019-04-10T21:44:00.271Z,98625.88
2019-04-10T21:46:28.824Z,98630.59
2019-04-10T21:48:57.437Z,98629.14
2019-04-10T21:51:25.998Z,98624.04
2019-04-10T21:53:54.537Z,98628.02
2019-04-10T21:56:24.436Z,98631.27
2019-04-10T21:58:53.069Z,98629.26
2019-04-10T22:01:21.995Z,98623.91
2019-04-10T22:03:50.596Z,98625.80
2019-04-10T22:06:28.040Z,98622.39
2019-04-10T22:09:14.891Z,98626.06
2019-04-10T22:11:45.614Z,98621.64
2019-04-10T22:14:15.103Z,98628.29
2019-04-10T22:16:44.356Z,98624.17
2019-04-10T22:19:13.002Z,98623.41
2019-04-10T22:21:41.935Z,98622.14
2019-04-10T22:24:11.586Z,98617.89
2019-04-10T22:26:44.479Z,98610.47
2019-04-10T22:29:14.162Z,98616.80
2019-04-10T22:31:43.779Z,98613.27
2019-04-10T22:34:13.646Z,98615.28
2019-04-10T22:36:42.309Z,98612.76
2019-04-10T22:39:12.681Z,98618.95
2019-04-10T22:41:41.369Z,98616.67
2019-04-10T22:44:10.056Z,98619.48
2019-04-10T22:46:38.893Z,98620.97
2019-04-10T22:49:08.380Z,98620.33
2019-04-10T22:51:37.712Z,98617.89
2019-04-10T22:54:06.370Z,98619.61
2019-04-10T22:56:35.771Z,98617.34
2019-04-10T22:59:04.386Z,98622.01
2019-04-10T23:01:33.401Z,98615.48
2019-04-10T23:04:02.125Z,98621.41
2019-04-10T23:06:31.391Z,98620.23
2019-04-10T23:09:00.190Z,98624.36
2019-04-10T23:11:34.918Z,98619.14
2019-04-10T23:13:59.074Z,98627.95
2019-04-10T23:16:28.359Z,98631.13
2019-04-10T23:18:58.159Z,98629.72
2019-04-10T23:21:26.829Z,98630.06
2019-04-10T23:23:55.512Z,98629.42
2019-04-10T23:26:24.925Z,98627.41
2019-04-10T23:28:53.791Z,98624.03
2019-04-10T23:31:22.266Z,98622.80
2019-04-10T23:33:50.833Z,98615.80
2019-04-10T23:36:20.218Z,98618.93
2019-04-10T23:38:49.922Z,98615.14
2019-04-10T23:41:18.627Z,98621.98
2019-04-10T23:43:48.171Z,98619.77
2019-04-10T23:46:17.969Z,98626.50
2019-04-10T23:48:46.880Z,98618.69
2019-04-10T23:51:15.396Z,98620.13
2019-04-10T23:53:44.791Z,98614.27
2019-04-10T23:56:13.681Z,98619.36
2019-04-10T23:58:42.439Z,98621.42
